Burnt Hills, NY (12027)

5:13 AM EST on November 29, 2014 (GMT -0500)
Buell Heights | Change Station
CLOSE
Current Station
Personal Weather Station
Location: Ballston Lake, NY
Elevation: 358 ft
Nearby Weather Stations

Elev 358 ft 42.91 °N, 73.88 °W | Updated 1 second ago

Overcast
Overcast
19.4 °F
Feels Like 19 °F
N
0.0
Wind Variable Wind from SW
Gusts 0.7 mph

Today
High -- | Low -- °F
--% Chance of Precip.
Yesterday
High -- | Low -- °F
Precip. -- in
7:04 AM 4:23 PM
Waxing Crescent, 50% visible
Pressure 30.29 in
Visibility 10.0 miles
Clouds Mostly Cloudy 11000 ft
Windchill 19 °F
Dew Point 17 °F
Humidity 89%
Rainfall 0.00 in
Snow Depth Not available.
UV 0 out of 12
Pollen .10 out of 12
Air Quality Not available.
Flu Activity Not available.
METAR KALB 290951Z 22003KT 10SM BKN110 M08/M12 A3028 RMK AO2 SLP256 BKN V OVC T10781117

More Conditions Fewer Conditions

Pressure 30.29 in
Visibility 10.0 miles
Clouds Mostly Cloudy 11000 ft
Windchill 19 °F
Dew Point 17 °F
Humidity 89%
Rainfall 0.00 in
Snow Depth Not available.
UV 0 out of 12
Pollen .10 out of 12
Air Quality Not available.
Flu Activity Not available.
METAR KALB 290951Z 22003KT 10SM BKN110 M08/M12 A3028 RMK AO2 SLP256 BKN V OVC T10781117

More Conditions Fewer Conditions

10-Day Weather Forecast

Almanac

Astronomy

Nov. 29, 2014 Rise Set
Actual Time
Civil Twilight
Nautical Twilight
Astronomical Twilight
Moon
Length of Visible Light
Length of Day
Tomorrow will be .
, % of the Moon is Illuminated

Today's Extremes

State Highs State Lows

Community

WunderPhotos

Upload Photos

1,774,442 photos uploaded!

WunderBlogs® & News

Nearby

Air Quality

  Air Quality AQ Index Pollutant
Not available.

Snow Depth

Station Depth Elevation

Earthquake Activity

City Distance Mag. Time & Date
Minimum magnitude displayed is 2.5.

Coastal Water Temperatures

Place Temperature

Nearby Weather Stations